createdAt,value
2023-03-21T00:03:04.492Z,5.10
2023-03-21T00:08:06.029Z,6.22
2023-03-21T00:13:07.512Z,6.47
2023-03-21T00:18:11.252Z,7.20
2023-03-21T00:23:13.050Z,3.77
2023-03-21T00:28:14.503Z,8.52
2023-03-21T00:33:22.580Z,5.53
2023-03-21T00:38:24.850Z,6.60
2023-03-21T00:43:30.112Z,6.07
2023-03-21T00:48:31.945Z,4.88
2023-03-21T00:53:33.333Z,6.43
2023-03-21T00:58:34.749Z,5.13
2023-03-21T01:03:42.622Z,6.07
2023-03-21T01:08:52.236Z,4.28
2023-03-21T01:14:03.986Z,6.53
2023-03-21T01:24:26.532Z,3.17
2023-03-21T01:29:27.965Z,5.72
2023-03-21T01:34:29.889Z,5.47
2023-03-21T01:39:34.814Z,5.53
2023-03-21T01:45:15.346Z,6.95
2023-03-21T01:50:17.062Z,7.70
2023-03-21T01:55:18.964Z,5.30
2023-03-21T02:00:24.937Z,3.95
2023-03-21T02:05:33.347Z,6.75
2023-03-21T02:10:36.488Z,4.57
2023-03-21T02:15:41.330Z,4.65
2023-03-21T02:21:21.892Z,8.15
2023-03-21T02:26:43.885Z,5.60
2023-03-21T02:32:00.908Z,5.57
2023-03-21T02:37:23.482Z,6.78
2023-03-21T02:42:51.584Z,5.70
2023-03-21T02:48:10.067Z,6.70
2023-03-21T02:53:18.363Z,5.67
2023-03-21T02:58:23.260Z,6.45
2023-03-21T03:03:34.065Z,4.75
2023-03-21T03:09:02.770Z,6.07
2023-03-21T03:14:36.761Z,4.90
2023-03-21T03:19:50.018Z,6.75
2023-03-21T03:25:18.599Z,5.00
2023-03-21T03:30:35.436Z,5.30
2023-03-21T03:35:46.443Z,4.78
2023-03-21T03:40:58.368Z,5.60
2023-03-21T03:46:23.091Z,6.35
2023-03-21T03:51:43.882Z,5.68
2023-03-21T03:56:46.891Z,6.28
2023-03-21T04:01:49.114Z,5.30
2023-03-21T04:06:51.714Z,7.70
2023-03-21T04:11:53.229Z,4.70
2023-03-21T04:16:54.597Z,8.20
2023-03-21T04:21:56.191Z,5.28
2023-03-21T04:26:57.604Z,6.28
2023-03-21T04:31:59.664Z,7.38
2023-03-21T04:37:01.019Z,7.35
2023-03-21T04:42:02.372Z,5.38
2023-03-21T04:47:03.811Z,6.63
2023-03-21T04:52:05.961Z,5.65
2023-03-21T04:57:08.019Z,7.35
2023-03-21T05:02:09.503Z,6.70
2023-03-21T05:07:11.094Z,7.18
2023-03-21T05:12:12.503Z,7.03
2023-03-21T05:17:15.355Z,7.30
2023-03-21T05:22:19.105Z,6.25
2023-03-21T05:27:36.975Z,7.90
2023-03-21T05:32:38.565Z,7.70
2023-03-21T05:37:40.334Z,7.22
2023-03-21T05:42:41.753Z,7.15
2023-03-21T05:47:43.278Z,5.45
2023-03-21T05:52:44.654Z,5.22
2023-03-21T05:57:46.184Z,6.90
2023-03-21T06:02:48.097Z,5.70
2023-03-21T06:07:50.317Z,10.02
2023-03-21T06:12:51.691Z,7.40
2023-03-21T06:17:53.220Z,6.70
2023-03-21T06:22:54.684Z,6.28
2023-03-21T06:27:56.336Z,6.93
2023-03-21T06:32:57.711Z,7.03
2023-03-21T06:37:59.798Z,7.10
2023-03-21T06:43:01.500Z,6.95
2023-03-21T06:48:03.415Z,7.97
2023-03-21T06:53:06.542Z,6.53
2023-03-21T06:58:17.061Z,12.15
2023-03-21T07:03:19.474Z,8.65
2023-03-21T07:08:22.310Z,7.53
2023-03-21T07:13:24.150Z,9.13
2023-03-21T07:18:26.225Z,6.18
2023-03-21T07:23:28.308Z,8.73
2023-03-21T07:28:31.338Z,4.90
2023-03-21T07:33:33.745Z,6.82
2023-03-21T07:38:35.234Z,9.10
2023-03-21T07:43:39.167Z,7.32
2023-03-21T07:48:40.996Z,7.40
2023-03-21T07:53:44.074Z,6.63
2023-03-21T07:58:45.603Z,7.05
2023-03-21T08:03:48.039Z,8.05
2023-03-21T08:08:49.521Z,13.48
2023-03-21T08:13:51.450Z,12.23
2023-03-21T08:18:52.855Z,8.77
2023-03-21T08:23:54.543Z,10.13
2023-03-21T08:28:56.101Z,9.82
2023-03-21T08:33:57.718Z,9.40
2023-03-21T08:39:05.704Z,8.27
2023-03-21T08:44:07.123Z,8.18
2023-03-21T08:49:08.644Z,8.85
2023-03-21T08:54:18.671Z,6.85
2023-03-21T08:59:20.326Z,5.65
2023-03-21T09:04:21.754Z,7.75
2023-03-21T09:09:23.855Z,7.03
2023-03-21T09:14:28.742Z,11.95
2023-03-21T09:19:31.868Z,7.95
2023-03-21T09:24:33.406Z,11.65
2023-03-21T09:29:34.920Z,7.60
2023-03-21T09:34:41.115Z,6.85
2023-03-21T09:39:44.922Z,7.22
2023-03-21T09:45:10.322Z,10.15
2023-03-21T09:50:17.346Z,8.23
2023-03-21T09:55:31.580Z,8.50
2023-03-21T10:00:40.288Z,8.52
2023-03-21T10:05:47.037Z,8.43
2023-03-21T10:10:52.574Z,8.48
2023-03-21T10:15:58.599Z,10.15
2023-03-21T10:21:01.337Z,8.57
2023-03-21T10:26:06.517Z,10.15
2023-03-21T10:31:10.923Z,10.38
2023-03-21T10:36:27.894Z,9.00
2023-03-21T10:41:29.631Z,9.57
2023-03-21T10:46:33.459Z,10.30
2023-03-21T10:51:39.838Z,11.05
2023-03-21T10:56:55.432Z,9.52
2023-03-21T11:01:57.550Z,7.85
2023-03-21T11:07:07.621Z,8.93
2023-03-21T11:12:15.806Z,7.60
2023-03-21T11:17:17.427Z,6.93
2023-03-21T11:22:22.512Z,6.30
2023-03-21T11:27:29.350Z,8.45
2023-03-21T11:32:37.822Z,8.25
2023-03-21T11:37:46.648Z,8.30
2023-03-21T11:42:59.370Z,12.07
2023-03-21T11:48:06.462Z,7.93
2023-03-21T11:53:40.618Z,11.68
2023-03-21T11:58:54.676Z,10.25
2023-03-21T12:04:27.334Z,8.57
2023-03-21T12:09:41.146Z,9.60
2023-03-21T12:15:16.935Z,12.97
2023-03-21T12:20:54.334Z,8.43
2023-03-21T12:26:21.462Z,9.50
2023-03-21T12:31:26.288Z,7.82
2023-03-21T12:36:59.056Z,11.82
2023-03-21T12:42:22.349Z,13.93
2023-03-21T12:47:28.112Z,10.38
2023-03-21T12:52:36.926Z,6.35
2023-03-21T12:57:56.370Z,8.75
2023-03-21T13:03:04.104Z,12.98
2023-03-21T13:08:11.398Z,8.10
2023-03-21T13:13:55.088Z,7.57
2023-03-21T13:19:10.968Z,5.13
2023-03-21T13:24:28.481Z,7.07
2023-03-21T13:29:45.151Z,3.97
2023-03-21T13:34:55.023Z,4.68
2023-03-21T13:40:12.839Z,4.75
2023-03-21T13:45:27.460Z,4.20
2023-03-21T13:50:54.738Z,5.03
2023-03-21T13:56:06.804Z,4.18
2023-03-21T14:01:33.160Z,6.20
2023-03-21T14:07:17.963Z,7.75
2023-03-21T14:12:47.527Z,6.40
2023-03-21T14:18:06.507Z,6.80
2023-03-21T14:23:17.899Z,6.13
2023-03-21T14:28:29.821Z,6.97
2023-03-21T14:33:38.539Z,7.13
2023-03-21T14:38:40.317Z,7.45
2023-03-21T14:43:42.949Z,6.03
2023-03-21T14:48:44.431Z,5.78
2023-03-21T14:53:46.181Z,5.85
2023-03-21T14:58:48.196Z,6.63
2023-03-21T15:03:52.017Z,7.78
2023-03-21T15:08:59.770Z,8.02
2023-03-21T15:14:05.005Z,7.63
2023-03-21T15:19:07.847Z,6.45
2023-03-21T15:24:17.451Z,8.77
2023-03-21T15:29:19.231Z,7.38
2023-03-21T15:34:22.300Z,7.22
2023-03-21T15:39:24.614Z,5.25
2023-03-21T15:44:27.761Z,7.97
2023-03-21T15:49:35.721Z,5.70
2023-03-21T15:54:50.851Z,12.13
2023-03-21T16:00:11.890Z,8.93
2023-03-21T16:05:26.022Z,8.07
2023-03-21T16:10:37.780Z,12.52
2023-03-21T16:15:40.014Z,8.15
2023-03-21T16:20:46.110Z,8.45
2023-03-21T16:25:47.842Z,7.22
2023-03-21T16:30:49.466Z,7.85
2023-03-21T16:35:52.424Z,6.70
2023-03-21T16:40:53.874Z,10.23
2023-03-21T16:45:55.261Z,9.23
2023-03-21T16:50:56.828Z,7.72
2023-03-21T16:56:02.556Z,8.63
2023-03-21T17:01:04.066Z,9.75
2023-03-21T17:06:06.095Z,9.57
2023-03-21T17:11:12.418Z,9.88
2023-03-21T17:16:15.708Z,8.43
2023-03-21T17:21:20.403Z,8.63
2023-03-21T17:26:27.480Z,11.80
2023-03-21T17:31:34.517Z,84.95
2023-03-21T17:36:40.551Z,69.93
2023-03-21T17:41:42.030Z,21.20
2023-03-21T17:46:44.120Z,18.98
2023-03-21T17:51:46.996Z,9.55
2023-03-21T17:56:48.515Z,32.17
2023-03-21T18:01:49.954Z,67.70
2023-03-21T18:06:51.758Z,67.78
2023-03-21T18:11:53.240Z,27.88
2023-03-21T18:16:57.429Z,56.63
2023-03-21T18:21:58.903Z,60.95
2023-03-21T18:27:00.941Z,15.82
2023-03-21T18:32:06.924Z,11.45
2023-03-21T18:37:11.299Z,13.63
2023-03-21T18:42:18.018Z,23.10
2023-03-21T18:47:22.904Z,13.40
2023-03-21T18:52:27.719Z,11.90
2023-03-21T18:57:36.972Z,12.63
2023-03-21T19:02:46.722Z,15.50
2023-03-21T19:07:50.847Z,12.65
2023-03-21T19:12:54.731Z,13.00
2023-03-21T19:23:18.718Z,13.65
2023-03-21T19:28:20.374Z,13.95
2023-03-21T19:33:22.759Z,15.45
2023-03-21T19:38:24.428Z,13.90
2023-03-21T19:43:32.880Z,15.93
2023-03-21T19:48:36.102Z,12.27
2023-03-21T19:53:39.061Z,16.05
2023-03-21T19:58:44.035Z,16.45
2023-03-21T20:03:46.014Z,15.55
2023-03-21T20:14:09.500Z,13.10
2023-03-21T20:19:13.388Z,13.35
2023-03-21T20:24:16.268Z,16.27
2023-03-21T20:34:40.314Z,17.35
2023-03-21T20:39:42.624Z,20.02
2023-03-21T20:45:00.841Z,18.40
2023-03-21T20:50:03.213Z,25.48
2023-03-21T20:55:08.933Z,22.42
2023-03-21T21:00:18.454Z,20.10
2023-03-21T21:05:35.896Z,16.45
2023-03-21T21:11:02.621Z,15.65
2023-03-21T21:16:00.222Z,16.23
2023-03-21T21:21:05.678Z,16.90
2023-03-21T21:26:09.079Z,17.80
2023-03-21T21:31:14.572Z,18.13
2023-03-21T21:36:16.900Z,18.05
2023-03-21T21:41:21.275Z,17.60
2023-03-21T21:46:23.530Z,20.00
2023-03-21T21:51:26.343Z,18.90
2023-03-21T21:56:32.685Z,17.55
2023-03-21T22:01:35.017Z,21.13
2023-03-21T22:06:37.537Z,19.13
2023-03-21T22:11:38.937Z,20.27
2023-03-21T22:16:40.459Z,18.30
2023-03-21T22:21:41.985Z,18.38
2023-03-21T22:26:44.896Z,19.00
2023-03-21T22:31:47.240Z,17.38
2023-03-21T22:36:50.301Z,20.95
2023-03-21T22:41:54.247Z,17.65
2023-03-21T22:46:56.001Z,17.00
2023-03-21T22:51:58.678Z,17.90
2023-03-21T22:57:00.235Z,18.15
2023-03-21T23:02:01.923Z,18.08
2023-03-21T23:07:04.196Z,17.60
2023-03-21T23:12:05.862Z,19.67
2023-03-21T23:17:07.408Z,19.27
2023-03-21T23:22:09.052Z,20.77
2023-03-21T23:27:10.612Z,21.30
2023-03-21T23:32:12.057Z,23.13
2023-03-21T23:37:13.448Z,22.52
2023-03-21T23:42:14.826Z,21.52
2023-03-21T23:47:16.770Z,21.70
2023-03-21T23:52:18.967Z,21.40
2023-03-21T23:57:20.604Z,19.88
